Alsace — PB4786 — position and weather

sailwx.info

Track history (hours):
 
Tides and Currents Weather Stations Pressure Air Temp Water Temp Dewpoint Dewpoint Depression Visibility Wind Speed Wind Dir Waves Ship Positions

Alsace

Last reported at 2014-Sep-02 20:33 UTC. Time now 2014-Sep-02 21:30 UTC.
Position N 51°17' E 004°19'.

Length 178 m.

Type: Ship. MMSI: 244660556.

Date/timePositionNaut miles runAvg speedWind from/ knotsBaromVisibWave heightAir tempDewpointWater temp
2014-Sep-02 20:33N 51°17' E 004°19'1 1.2
2014-Sep-02 19:33N 51°18' E 004°17'3 2.7
2014-Sep-02 18:23N 51°21' E 004°16'0 0.0
2014-Sep-02 17:33N 51°21' E 004°16'0 0.0
2014-Sep-02 14:25N 51°21' E 004°16'1 0.8
2014-Sep-02 13:18N 51°20' E 004°17'0 0.0
2014-Sep-02 12:34N 51°20' E 004°17'0 0.0
2014-Sep-02 11:04N 51°20' E 004°17'1 0.5
2014-Sep-02 09:23N 51°21' E 004°16'0 0.0
2014-Sep-02 08:17N 51°21' E 004°16'0 0.0
2014-Sep-02 06:06N 51°21' E 004°16'3 3.6
2014-Sep-02 05:23N 51°18' E 004°16'1 0.9
2014-Sep-02 04:26N 51°18' E 004°16'0 0.0
2014-Sep-01 23:10N 51°17' E 004°16'0 0.1
2014-Sep-01 21:33N 51°18' E 004°16'3 3.1
2014-Sep-01 20:33N 51°16' E 004°20'3 2.8
2014-Sep-01 19:25N 51°19' E 004°19'0 0.1
2014-Sep-01 18:08N 51°19' E 004°19'0 0.2
2014-Sep-01 17:33N 51°19' E 004°19'0 0.0
2014-Sep-01 16:33N 51°19' E 004°19'3 1.0
2014-Sep-01 13:10N 51°22' E 004°17'5 7.4
2014-Sep-01 12:30N 51°27' E 004°14'3 3.0
2014-Sep-01 11:32N 51°30' E 004°13'8 7.6
2014-Sep-01 10:28N 51°38' E 004°13'18 6.0
2014-Sep-01 07:33N 51°43' E 004°40'7 7.5
2014-Sep-01 06:33N 51°48' E 004°50'8 8.4
2014-Sep-01 05:33N 51°49' E 005°03'9 9.2
2014-Sep-01 04:33N 51°49' E 005°18'8 7.8
2014-Sep-01 03:33N 51°53' E 005°29'61 5.1
2014-Aug-31 15:33N 51°15' E 006°45'131 7.7
2014-Aug-30 22:29N 49°22' E 008°30'8 8.1
2014-Aug-30 21:31N 49°15' E 008°26'1010.3
2014-Aug-30 20:33N 49°06' E 008°21'1110.5
2014-Aug-30 19:32N 48°57' E 008°12'15 6.7
2014-Aug-30 17:15N 48°45' E 007°58'4 5.4
2014-Aug-30 16:27N 48°41' E 007°55'64 2.7
2014-Aug-29 16:33N 47°39' E 007°31'1 0.6
2014-Aug-29 15:33N 47°39' E 007°32'4 3.5
2014-Aug-29 14:33N 47°36' E 007°36'1 1.4
2014-Aug-29 13:33N 47°35' E 007°35'0 0.1
2014-Aug-29 12:33N 47°35' E 007°35'0 0.0
2014-Aug-29 11:33N 47°35' E 007°35'0 0.0
2014-Aug-29 10:32N 47°35' E 007°35'0 0.0
2014-Aug-29 09:33N 47°35' E 007°35'0 0.0
2014-Aug-29 08:33N 47°35' E 007°35'0 0.0
2014-Aug-29 07:33N 47°35' E 007°35'0 0.0
2014-Aug-29 06:33N 47°35' E 007°35'0 0.1
2014-Aug-29 05:33N 47°35' E 007°35'0 0.3
2014-Aug-29 04:33N 47°35' E 007°35'0 0.2
2014-Aug-29 03:33N 47°35' E 007°35'0 0.0
2014-Aug-29 02:33N 47°35' E 007°35'0 0.0
2014-Aug-29 01:33N 47°35' E 007°35'0 0.0
2014-Aug-29 00:33N 47°35' E 007°35'0 0.0
2014-Aug-28 23:31N 47°35' E 007°35'0 0.0
2014-Aug-28 22:30N 47°35' E 007°35'0 0.0
2014-Aug-28 21:32N 47°35' E 007°35'0 0.0
2014-Aug-28 20:33N 47°35' E 007°35'0 0.0
2014-Aug-28 19:31N 47°35' E 007°35'0 0.0
2014-Aug-28 18:33N 47°35' E 007°35'0 0.0
2014-Aug-28 17:33N 47°35' E 007°35'0 0.0
2014-Aug-28 16:33N 47°35' E 007°35'0 0.0
2014-Aug-28 15:33N 47°35' E 007°35'0 0.0
2014-Aug-28 14:31N 47°35' E 007°35'0 0.0
2014-Aug-28 13:33N 47°35' E 007°35'0 0.1
2014-Aug-28 12:33N 47°35' E 007°35'0 0.0
2014-Aug-28 11:33N 47°35' E 007°35'1 0.7
2014-Aug-28 10:33N 47°36' E 007°36'1 0.6
2014-Aug-28 09:33N 47°36' E 007°35'0 0.0
2014-Aug-28 08:32N 47°36' E 007°35'0 0.0
2014-Aug-28 07:32N 47°36' E 007°35'0 0.0
2014-Aug-28 06:31N 47°36' E 007°35'0 0.0
2014-Aug-28 05:33N 47°36' E 007°35'0 0.0
2014-Aug-28 04:33N 47°36' E 007°35'0 0.0
2014-Aug-28 03:33N 47°36' E 007°35'0 0.0
2014-Aug-28 02:33N 47°36' E 007°35'0 0.0
2014-Aug-28 01:33N 47°36' E 007°35'0 0.0
2014-Aug-28 00:32N 47°36' E 007°35'0 0.0
2014-Aug-27 23:33N 47°36' E 007°35'0 0.0
2014-Aug-27 22:33N 47°36' E 007°35'4 3.7
2014-Aug-27 21:31N 47°39' E 007°32'64 3.8
2014-Aug-27 04:32N 48°41' E 007°55'3 3.2
2014-Aug-27 03:33N 48°43' E 007°58'6 6.3
2014-Aug-27 02:32N 48°48' E 008°05'5 4.4
2014-Aug-27 01:24N 48°52' E 008°08'4 5.0
2014-Aug-27 00:33N 48°56' E 008°11'5 4.5
2014-Aug-26 23:33N 48°59' E 008°16'5 4.7
2014-Aug-26 22:34N 49°03' E 008°19'5 4.9
2014-Aug-26 21:34N 49°08' E 008°22'5 4.7
2014-Aug-26 20:33N 49°12' E 008°23'5 4.6
2014-Aug-26 19:33N 49°16' E 008°27'4 3.3
2014-Aug-26 18:26N 49°20' E 008°27'126 4.0
2014-Aug-25 11:07N 51°09' E 006°48'3 4.7
2014-Aug-25 10:33N 51°11' E 006°47'3 3.0
2014-Aug-25 09:33N 51°14' E 006°44'3 3.0
2014-Aug-25 08:25N 51°17' E 006°42'49 2.3
2014-Aug-24 11:13N 51°52' E 005°49'4 4.5
2014-Aug-24 10:20N 51°53' E 005°43'4 4.6
2014-Aug-24 09:33N 51°54' E 005°37'4 4.5
2014-Aug-24 08:32N 51°53' E 005°30'4 4.1
2014-Aug-24 07:34N 51°51' E 005°25'4 3.6
2014-Aug-24 06:33N 51°49' E 005°20'4 4.1
2014-Aug-24 05:34N 51°49' E 005°13'5 4.8
2014-Aug-24 04:33N 51°50' E 005°06'5 5.4
2014-Aug-24 03:33N 51°50' E 004°57'6 5.5
2014-Aug-24 02:33N 51°48' E 004°48'6 6.1
2014-Aug-24 01:33N 51°44' E 004°41'7 6.7
2014-Aug-24 00:31N 51°42' E 004°31'4 4.5
2014-Aug-23 23:33N 51°41' E 004°24'7 7.4
2014-Aug-23 22:33N 51°38' E 004°13'6 6.4
2014-Aug-23 21:33N 51°31' E 004°13'5 5.2
2014-Aug-23 20:34N 51°26' E 004°14'  
Track history (hours):
 
Tides and Currents Weather Stations Pressure Air Temp Water Temp Dewpoint Dewpoint Depression Visibility Wind Speed Wind Dir Waves Ship Positions

Alsace

Last reported at 2014-Sep-02 20:33 UTC. Time now 2014-Sep-02 21:30 UTC.
Position N 51°17' E 004°19'.

Length 178 m.

Type: Ship. MMSI: 244660556.

Date/timePositionNaut miles runAvg speedWind from/ knotsBaromVisibWave heightAir tempDewpointWater temp
2014-Sep-02 20:33N 51°17' E 004°19'1 1.2
2014-Sep-02 19:33N 51°18' E 004°17'3 2.7
2014-Sep-02 18:23N 51°21' E 004°16'0 0.0
2014-Sep-02 17:33N 51°21' E 004°16'0 0.0
2014-Sep-02 14:25N 51°21' E 004°16'1 0.8
2014-Sep-02 13:18N 51°20' E 004°17'0 0.0
2014-Sep-02 12:34N 51°20' E 004°17'0 0.0
2014-Sep-02 11:04N 51°20' E 004°17'1 0.5
2014-Sep-02 09:23N 51°21' E 004°16'0 0.0
2014-Sep-02 08:17N 51°21' E 004°16'0 0.0
2014-Sep-02 06:06N 51°21' E 004°16'3 3.6
2014-Sep-02 05:23N 51°18' E 004°16'1 0.9
2014-Sep-02 04:26N 51°18' E 004°16'0 0.0
2014-Sep-01 23:10N 51°17' E 004°16'0 0.1
2014-Sep-01 21:33N 51°18' E 004°16'3 3.1
2014-Sep-01 20:33N 51°16' E 004°20'3 2.8
2014-Sep-01 19:25N 51°19' E 004°19'0 0.1
2014-Sep-01 18:08N 51°19' E 004°19'0 0.2
2014-Sep-01 17:33N 51°19' E 004°19'0 0.0
2014-Sep-01 16:33N 51°19' E 004°19'3 1.0
2014-Sep-01 13:10N 51°22' E 004°17'5 7.4
2014-Sep-01 12:30N 51°27' E 004°14'3 3.0
2014-Sep-01 11:32N 51°30' E 004°13'8 7.6
2014-Sep-01 10:28N 51°38' E 004°13'18 6.0
2014-Sep-01 07:33N 51°43' E 004°40'7 7.5
2014-Sep-01 06:33N 51°48' E 004°50'8 8.4
2014-Sep-01 05:33N 51°49' E 005°03'9 9.2
2014-Sep-01 04:33N 51°49' E 005°18'8 7.8
2014-Sep-01 03:33N 51°53' E 005°29'61 5.1
2014-Aug-31 15:33N 51°15' E 006°45'131 7.7
2014-Aug-30 22:29N 49°22' E 008°30'8 8.1
2014-Aug-30 21:31N 49°15' E 008°26'1010.3
2014-Aug-30 20:33N 49°06' E 008°21'1110.5
2014-Aug-30 19:32N 48°57' E 008°12'15 6.7
2014-Aug-30 17:15N 48°45' E 007°58'4 5.4
2014-Aug-30 16:27N 48°41' E 007°55'64 2.7
2014-Aug-29 16:33N 47°39' E 007°31'1 0.6
2014-Aug-29 15:33N 47°39' E 007°32'4 3.5
2014-Aug-29 14:33N 47°36' E 007°36'1 1.4
2014-Aug-29 13:33N 47°35' E 007°35'0 0.1
2014-Aug-29 12:33N 47°35' E 007°35'0 0.0
2014-Aug-29 11:33N 47°35' E 007°35'0 0.0
2014-Aug-29 10:32N 47°35' E 007°35'0 0.0
2014-Aug-29 09:33N 47°35' E 007°35'0 0.0
2014-Aug-29 08:33N 47°35' E 007°35'0 0.0
2014-Aug-29 07:33N 47°35' E 007°35'0 0.0
2014-Aug-29 06:33N 47°35' E 007°35'0 0.1
2014-Aug-29 05:33N 47°35' E 007°35'0 0.3
2014-Aug-29 04:33N 47°35' E 007°35'0 0.2
2014-Aug-29 03:33N 47°35' E 007°35'0 0.0
2014-Aug-29 02:33N 47°35' E 007°35'0 0.0
2014-Aug-29 01:33N 47°35' E 007°35'0 0.0
2014-Aug-29 00:33N 47°35' E 007°35'0 0.0
2014-Aug-28 23:31N 47°35' E 007°35'0 0.0
2014-Aug-28 22:30N 47°35' E 007°35'0 0.0
2014-Aug-28 21:32N 47°35' E 007°35'0 0.0
2014-Aug-28 20:33N 47°35' E 007°35'0 0.0
2014-Aug-28 19:31N 47°35' E 007°35'0 0.0
2014-Aug-28 18:33N 47°35' E 007°35'0 0.0
2014-Aug-28 17:33N 47°35' E 007°35'0 0.0
2014-Aug-28 16:33N 47°35' E 007°35'0 0.0
2014-Aug-28 15:33N 47°35' E 007°35'0 0.0
2014-Aug-28 14:31N 47°35' E 007°35'0 0.0
2014-Aug-28 13:33N 47°35' E 007°35'0 0.1
2014-Aug-28 12:33N 47°35' E 007°35'0 0.0
2014-Aug-28 11:33N 47°35' E 007°35'1 0.7
2014-Aug-28 10:33N 47°36' E 007°36'1 0.6
2014-Aug-28 09:33N 47°36' E 007°35'0 0.0
2014-Aug-28 08:32N 47°36' E 007°35'0 0.0
2014-Aug-28 07:32N 47°36' E 007°35'0 0.0
2014-Aug-28 06:31N 47°36' E 007°35'0 0.0
2014-Aug-28 05:33N 47°36' E 007°35'0 0.0
2014-Aug-28 04:33N 47°36' E 007°35'0 0.0
2014-Aug-28 03:33N 47°36' E 007°35'0 0.0
2014-Aug-28 02:33N 47°36' E 007°35'0 0.0
2014-Aug-28 01:33N 47°36' E 007°35'0 0.0
2014-Aug-28 00:32N 47°36' E 007°35'0 0.0
2014-Aug-27 23:33N 47°36' E 007°35'0 0.0
2014-Aug-27 22:33N 47°36' E 007°35'4 3.7
2014-Aug-27 21:31N 47°39' E 007°32'64 3.8
2014-Aug-27 04:32N 48°41' E 007°55'3 3.2
2014-Aug-27 03:33N 48°43' E 007°58'6 6.3
2014-Aug-27 02:32N 48°48' E 008°05'5 4.4
2014-Aug-27 01:24N 48°52' E 008°08'4 5.0
2014-Aug-27 00:33N 48°56' E 008°11'5 4.5
2014-Aug-26 23:33N 48°59' E 008°16'5 4.7
2014-Aug-26 22:34N 49°03' E 008°19'5 4.9
2014-Aug-26 21:34N 49°08' E 008°22'5 4.7
2014-Aug-26 20:33N 49°12' E 008°23'5 4.6
2014-Aug-26 19:33N 49°16' E 008°27'4 3.3
2014-Aug-26 18:26N 49°20' E 008°27'126 4.0
2014-Aug-25 11:07N 51°09' E 006°48'3 4.7
2014-Aug-25 10:33N 51°11' E 006°47'3 3.0
2014-Aug-25 09:33N 51°14' E 006°44'3 3.0
2014-Aug-25 08:25N 51°17' E 006°42'49 2.3
2014-Aug-24 11:13N 51°52' E 005°49'4 4.5
2014-Aug-24 10:20N 51°53' E 005°43'4 4.6
2014-Aug-24 09:33N 51°54' E 005°37'4 4.5
2014-Aug-24 08:32N 51°53' E 005°30'4 4.1
2014-Aug-24 07:34N 51°51' E 005°25'4 3.6
2014-Aug-24 06:33N 51°49' E 005°20'4 4.1
2014-Aug-24 05:34N 51°49' E 005°13'5 4.8
2014-Aug-24 04:33N 51°50' E 005°06'5 5.4
2014-Aug-24 03:33N 51°50' E 004°57'6 5.5
2014-Aug-24 02:33N 51°48' E 004°48'6 6.1
2014-Aug-24 01:33N 51°44' E 004°41'7 6.7
2014-Aug-24 00:31N 51°42' E 004°31'4 4.5
2014-Aug-23 23:33N 51°41' E 004°24'7 7.4
2014-Aug-23 22:33N 51°38' E 004°13'6 6.4
2014-Aug-23 21:33N 51°31' E 004°13'5 5.2
2014-Aug-23 20:34N 51°26' E 004°14'  

Dump ship's entire track history